Terminal Aerodrome Forecast
Issued by NWS

Home | Current Version | Previous Version | Text Only | Print | Product List | Glossary On
Versions: 1 2 3 4 5 6 7 8 9 10 11 12
000
FTAK31 PANC 222322
TAFAIL
TAF
PAIL 222322Z 2300/2324 19008KT P6SM SCT070
     FM231200 VRB03KT 3SM BR SCT004 BKN010
     FM231900 22007KT P6SM FEW004 SCT025=

USA.gov is the U.S. government's official web portal to all federal, state and local government web resources and services.